createdAt,value
2019-01-13T00:01:03.580Z,98660.72
2019-01-13T00:03:33.248Z,98674.63
2019-01-13T00:06:09.155Z,98679.34
2019-01-13T00:08:38.659Z,98674.74
2019-01-13T00:11:08.108Z,98685.89
2019-01-13T00:13:37.542Z,98680.97
2019-01-13T00:16:09.913Z,98681.59
2019-01-13T00:18:39.397Z,98676.04
2019-01-13T00:21:08.873Z,98679.48
2019-01-13T00:23:38.426Z,98674.39
2019-01-13T00:26:35.911Z,98664.59
2019-01-13T00:29:29.283Z,98661.67
2019-01-13T00:32:04.234Z,98660.86
2019-01-13T00:35:00.376Z,98652.22
2019-01-13T00:38:10.374Z,98645.67
2019-01-13T00:46:22.406Z,98618.34
2019-01-13T00:48:51.936Z,98607.03
2019-01-13T00:51:21.358Z,98587.69
2019-01-13T00:54:10.375Z,98580.48
2019-01-13T00:57:18.369Z,98570.66
2019-01-13T00:59:48.225Z,98566.23
2019-01-13T01:02:20.850Z,98555.42
2019-01-13T01:07:40.733Z,98549.70
2019-01-13T01:10:48.663Z,98553.82
2019-01-13T01:20:02.391Z,98581.95
2019-01-13T01:22:45.753Z,98590.80
2019-01-13T01:25:17.050Z,98592.59
2019-01-13T01:27:46.476Z,98579.66
2019-01-13T01:36:42.922Z,98576.47
2019-01-13T01:39:12.388Z,98574.67
2019-01-13T01:41:41.974Z,98574.50
2019-01-13T01:50:18.124Z,98585.64
2019-01-13T01:52:58.905Z,98590.55
2019-01-13T01:59:07.033Z,98591.58
2019-01-13T02:01:36.431Z,98589.45
2019-01-13T02:04:05.955Z,98585.65
2019-01-13T02:06:54.332Z,98586.66
2019-01-13T02:12:59.030Z,98580.45
2019-01-13T02:18:20.803Z,98564.88
2019-01-13T02:20:50.641Z,98562.55
2019-01-13T02:23:27.723Z,98552.06
2019-01-13T02:26:26.287Z,98542.19
2019-01-13T02:28:57.705Z,98522.34
2019-01-13T02:31:47.191Z,98517.36
2019-01-13T02:34:42.287Z,98519.97
2019-01-13T02:37:48.416Z,98524.51
2019-01-13T02:40:41.467Z,98520.56
2019-01-13T02:46:13.469Z,98513.62
2019-01-13T02:48:49.579Z,98496.05
2019-01-13T03:01:03.524Z,98469.41
2019-01-13T03:04:12.696Z,98464.16
2019-01-13T03:06:46.284Z,98455.13
2019-01-13T03:09:18.223Z,98451.48
2019-01-13T03:12:08.191Z,98447.05
2019-01-13T03:14:50.118Z,98426.50
2019-01-13T03:17:20.833Z,98424.34
2019-01-13T03:19:53.035Z,98419.56
2019-01-13T03:22:35.775Z,98403.81
2019-01-13T03:25:15.401Z,98397.08
2019-01-13T03:27:47.640Z,98390.45
2019-01-13T03:30:46.076Z,98391.09
2019-01-13T03:33:43.649Z,98382.05
2019-01-13T03:36:23.309Z,98374.17
2019-01-13T03:39:02.225Z,98374.46
2019-01-13T03:42:16.893Z,98385.60
2019-01-13T03:44:39.359Z,98387.52
2019-01-13T03:47:19.051Z,98380.92
2019-01-13T03:50:16.314Z,98375.81
2019-01-13T03:53:06.323Z,98373.83
2019-01-13T03:55:55.349Z,98359.81
2019-01-13T03:58:36.365Z,98343.03
2019-01-13T04:01:18.550Z,98337.95
2019-01-13T04:04:03.949Z,98337.81
2019-01-13T04:06:37.318Z,98340.27
2019-01-13T04:09:13.003Z,98336.64
2019-01-13T04:11:48.123Z,98328.91
2019-01-13T04:14:20.291Z,98334.34
2019-01-13T04:17:10.399Z,98317.72
2019-01-13T04:19:51.025Z,98313.92
2019-01-13T04:22:21.237Z,98310.62
2019-01-13T04:25:13.375Z,98306.60
2019-01-13T04:28:06.037Z,98291.12
2019-01-13T04:33:39.245Z,98289.03
2019-01-13T04:36:11.833Z,98279.20
2019-01-13T04:39:02.209Z,98279.64
2019-01-13T04:41:38.013Z,98290.69
2019-01-13T04:47:05.700Z,98281.11
2019-01-13T04:49:57.145Z,98281.80
2019-01-13T04:52:38.730Z,98257.53
2019-01-13T04:58:47.516Z,98251.14
2019-01-13T05:01:19.381Z,98240.83
2019-01-13T05:04:11.703Z,98240.01
2019-01-13T05:06:42.385Z,98236.56
2019-01-13T05:09:12.193Z,98235.21
2019-01-13T05:11:42.277Z,98226.47
2019-01-13T05:14:12.203Z,98219.05
2019-01-13T05:16:42.318Z,98211.23
2019-01-13T05:19:12.395Z,98207.56
2019-01-13T05:21:42.056Z,98197.11
2019-01-13T05:24:38.184Z,98198.00
2019-01-13T05:27:11.834Z,98192.66
2019-01-13T05:29:41.469Z,98190.61
2019-01-13T05:32:11.820Z,98191.38
2019-01-13T05:34:44.302Z,98188.66
2019-01-13T05:37:13.772Z,98181.91
2019-01-13T05:39:43.792Z,98183.97
2019-01-13T05:42:13.729Z,98181.66
2019-01-13T05:44:47.536Z,98167.84
2019-01-13T05:47:17.331Z,98150.03
2019-01-13T05:49:50.960Z,98148.63
2019-01-13T05:52:20.412Z,98152.60
2019-01-13T05:54:50.257Z,98138.90
2019-01-13T05:57:38.893Z,98141.05
2019-01-13T06:03:10.889Z,98132.48
2019-01-13T06:05:43.467Z,98125.22
2019-01-13T06:08:15.513Z,98116.27
2019-01-13T06:10:49.276Z,98110.29
2019-01-13T06:13:19.105Z,98110.29
2019-01-13T06:15:51.746Z,98097.36
2019-01-13T06:18:21.813Z,98092.67
2019-01-13T06:20:53.219Z,98089.80
2019-01-13T06:26:26.003Z,98079.14
2019-01-13T06:28:55.270Z,98079.14
2019-01-13T06:31:47.577Z,98077.59
2019-01-13T06:34:17.661Z,98077.59
2019-01-13T06:36:47.507Z,98067.20
2019-01-13T06:39:17.079Z,98056.00
2019-01-13T06:41:46.815Z,98040.67
2019-01-13T06:44:36.811Z,98040.67
2019-01-13T06:52:31.048Z,98019.98
2019-01-13T06:55:00.728Z,98003.70
2019-01-13T06:57:30.563Z,97995.73
2019-01-13T07:00:00.335Z,97995.73
2019-01-13T07:02:30.188Z,97984.17
2019-01-13T07:05:20.416Z,97980.96
2019-01-13T07:07:50.374Z,97959.92
2019-01-13T07:10:39.000Z,97959.92
2019-01-13T07:13:08.661Z,97954.66
2019-01-13T07:15:38.496Z,97937.25
2019-01-13T07:18:08.473Z,97935.83
2019-01-13T07:20:41.046Z,97919.13
2019-01-13T07:23:10.675Z,97914.37
2019-01-13T07:25:40.606Z,97907.17
2019-01-13T07:28:10.408Z,97907.17
2019-01-13T07:30:42.417Z,97896.77
2019-01-13T07:33:12.310Z,97890.50
2019-01-13T07:35:42.255Z,97889.08
2019-01-13T07:38:33.333Z,97875.23
2019-01-13T07:41:14.732Z,97866.02
2019-01-13T07:43:44.283Z,97866.02
2019-01-13T07:46:14.016Z,97855.39
2019-01-13T07:48:43.660Z,97840.92
2019-01-13T07:51:13.319Z,97840.92
2019-01-13T07:53:48.744Z,97830.41
2019-01-13T07:56:18.425Z,97824.03
2019-01-13T08:01:37.866Z,97803.70
2019-01-13T08:04:07.671Z,97788.84
2019-01-13T08:06:37.603Z,97781.76
2019-01-13T08:09:28.432Z,97769.83
2019-01-13T08:11:58.885Z,97769.83
2019-01-13T08:14:47.757Z,97764.77
2019-01-13T08:20:32.737Z,97767.11
2019-01-13T08:23:02.558Z,97766.17
2019-01-13T08:25:51.243Z,97759.91
2019-01-13T08:31:15.486Z,97749.27
2019-01-13T08:33:45.253Z,97740.06
2019-01-13T08:36:33.909Z,97732.80
2019-01-13T08:39:05.449Z,97713.50
2019-01-13T08:41:57.160Z,97716.30
2019-01-13T08:44:27.076Z,97716.30
2019-01-13T08:46:59.243Z,97714.28
2019-01-13T08:49:28.972Z,97707.41
2019-01-13T08:52:20.859Z,97702.83
2019-01-13T08:54:50.520Z,97688.36
2019-01-13T09:00:45.997Z,97679.11
2019-01-13T09:03:07.631Z,97670.91
2019-01-13T09:05:37.363Z,97657.45
2019-01-13T09:08:16.770Z,97657.45
2019-01-13T09:10:46.177Z,97653.20
2019-01-13T09:13:35.070Z,97634.52
2019-01-13T09:16:05.769Z,97634.52
2019-01-13T09:18:35.275Z,97619.81
2019-01-13T09:21:05.436Z,97602.03
2019-01-13T09:23:37.230Z,97602.03
2019-01-13T09:26:06.786Z,97607.26
2019-01-13T09:28:56.179Z,97588.23
2019-01-13T09:31:37.638Z,97588.23
2019-01-13T09:34:07.065Z,97588.23
2019-01-13T09:36:36.582Z,97562.73
2019-01-13T09:39:11.364Z,97562.73
2019-01-13T09:42:00.066Z,97553.52
2019-01-13T09:44:29.565Z,97553.52
2019-01-13T09:46:59.181Z,97538.64
2019-01-13T09:49:50.055Z,97538.64
2019-01-13T09:52:30.655Z,97517.47
2019-01-13T09:55:05.577Z,97517.47
2019-01-13T09:57:35.211Z,97512.09
2019-01-13T10:00:06.741Z,97488.34
2019-01-13T10:02:36.402Z,97488.34
2019-01-13T10:05:06.722Z,97453.03
2019-01-13T10:07:36.369Z,97453.03
2019-01-13T10:10:08.759Z,97445.61
2019-01-13T10:12:38.324Z,97445.61
2019-01-13T10:15:11.049Z,97434.16
2019-01-13T10:17:40.685Z,97434.16
2019-01-13T10:26:04.966Z,97402.50
2019-01-13T10:28:34.437Z,97408.87
2019-01-13T10:31:04.280Z,97396.81
2019-01-13T10:33:45.279Z,97376.20
2019-01-13T10:36:14.884Z,97365.67
2019-01-13T10:38:44.359Z,97359.22
2019-01-13T10:41:33.099Z,97348.70
2019-01-13T10:44:04.927Z,97340.42
2019-01-13T10:46:34.450Z,97340.42
2019-01-13T10:49:03.956Z,97334.80
2019-01-13T10:51:33.484Z,97332.07
2019-01-13T10:54:12.846Z,97316.63
2019-01-13T10:56:34.752Z,97311.77
2019-01-13T11:02:16.809Z,97278.18
2019-01-13T11:04:57.734Z,97275.62
2019-01-13T11:07:39.172Z,97270.02
2019-01-13T11:10:09.862Z,97270.02
2019-01-13T11:12:40.202Z,97259.44
2019-01-13T11:15:28.762Z,97238.98
2019-01-13T11:17:58.307Z,97228.44
2019-01-13T11:20:58.737Z,97228.44
2019-01-13T11:28:52.397Z,97213.23
2019-01-13T11:31:21.916Z,97207.35
2019-01-13T11:33:51.527Z,97201.59
2019-01-13T11:36:21.056Z,97190.89
2019-01-13T11:38:50.496Z,97188.55
2019-01-13T11:41:19.945Z,97187.30
2019-01-13T11:43:49.416Z,97176.97
2019-01-13T11:46:18.854Z,97168.26
2019-01-13T11:48:48.492Z,97164.02
2019-01-13T11:53:53.046Z,97151.50
2019-01-13T11:56:22.707Z,97141.83
2019-01-13T11:59:04.353Z,97135.87
2019-01-13T12:01:23.300Z,97126.42
2019-01-13T12:04:11.630Z,97125.70
2019-01-13T12:06:41.594Z,97118.31
2019-01-13T12:11:53.561Z,97105.09
2019-01-13T12:14:23.165Z,97099.34
2019-01-13T12:16:52.763Z,97095.09
2019-01-13T12:19:22.221Z,97086.66
2019-01-13T12:21:51.756Z,97078.53
2019-01-13T12:24:21.239Z,97076.52
2019-01-13T12:26:50.816Z,97067.64
2019-01-13T12:29:20.234Z,97059.02
2019-01-13T12:31:51.194Z,97051.21
2019-01-13T12:34:20.670Z,97041.46
2019-01-13T12:36:50.100Z,97037.28
2019-01-13T12:42:08.009Z,97027.30
2019-01-13T12:44:37.436Z,97013.77
2019-01-13T12:47:06.826Z,97007.97
2019-01-13T12:49:36.367Z,97005.39
2019-01-13T12:52:05.896Z,97000.63
2019-01-13T12:54:35.331Z,96994.34
2019-01-13T12:57:05.066Z,96993.64
2019-01-13T12:59:34.568Z,96981.88
2019-01-13T13:02:04.943Z,96985.16
2019-01-13T13:04:34.404Z,96979.19
2019-01-13T13:07:04.225Z,96969.44
2019-01-13T13:09:33.905Z,96964.74
2019-01-13T13:12:04.254Z,96962.20
2019-01-13T13:14:33.899Z,96953.34
2019-01-13T13:17:04.790Z,96939.93
2019-01-13T13:19:34.346Z,96945.07
2019-01-13T13:22:04.203Z,96941.69
2019-01-13T13:27:22.457Z,96937.62
2019-01-13T13:29:52.034Z,96933.70
2019-01-13T13:32:21.472Z,96929.70
2019-01-13T13:34:51.019Z,96927.25
2019-01-13T13:37:20.452Z,96915.65
2019-01-13T13:39:50.032Z,96913.25
2019-01-13T13:42:19.586Z,96906.41
2019-01-13T13:44:49.183Z,96899.53
2019-01-13T13:47:18.659Z,96900.89
2019-01-13T13:49:48.210Z,96902.50
2019-01-13T13:52:17.737Z,96896.74
2019-01-13T13:54:47.248Z,96892.33
2019-01-13T13:57:16.872Z,96890.58
2019-01-13T13:59:46.366Z,96885.09
2019-01-13T14:02:15.953Z,96877.97
2019-01-13T14:04:45.597Z,96881.43
2019-01-13T14:07:15.033Z,96874.06
2019-01-13T14:09:44.539Z,96874.63
2019-01-13T14:12:14.129Z,96875.71
2019-01-13T14:20:00.321Z,96853.34
2019-01-13T14:22:33.204Z,96848.30
2019-01-13T14:25:02.660Z,96848.30
2019-01-13T14:27:32.065Z,96841.62
2019-01-13T14:30:01.613Z,96841.34
2019-01-13T14:32:31.242Z,96840.02
2019-01-13T14:35:00.782Z,96831.52
2019-01-13T14:37:30.341Z,96824.59
2019-01-13T14:39:59.829Z,96828.04
2019-01-13T14:42:29.301Z,96829.87
2019-01-13T14:44:59.206Z,96820.64
2019-01-13T14:47:28.679Z,96818.72
2019-01-13T14:49:58.146Z,96821.59
2019-01-13T14:52:27.638Z,96817.11
2019-01-13T14:54:57.250Z,96814.19
2019-01-13T14:57:26.904Z,96810.41
2019-01-13T14:59:56.497Z,96810.33
2019-01-13T15:02:30.842Z,96808.91
2019-01-13T15:05:00.350Z,96804.83
2019-01-13T15:07:30.021Z,96805.00
2019-01-13T15:09:59.580Z,96805.44
2019-01-13T15:12:31.871Z,96805.16
2019-01-13T15:17:50.105Z,96795.44
2019-01-13T15:20:20.826Z,96784.37
2019-01-13T15:23:29.636Z,96791.57
2019-01-13T15:26:13.589Z,96777.35
2019-01-13T15:28:43.052Z,96776.68
2019-01-13T15:31:12.475Z,96779.13
2019-01-13T15:33:42.018Z,96765.93
2019-01-13T15:36:11.551Z,96767.57
2019-01-13T15:38:40.941Z,96766.61
2019-01-13T15:41:10.404Z,96764.25
2019-01-13T15:46:16.229Z,96755.45
2019-01-13T15:54:41.150Z,96754.84
2019-01-13T15:57:10.571Z,96748.52
2019-01-13T15:59:40.129Z,96753.30
2019-01-13T16:02:09.599Z,96748.05
2019-01-13T16:04:39.036Z,96743.50
2019-01-13T16:07:08.475Z,96747.21
2019-01-13T16:09:37.925Z,96746.17
2019-01-13T16:12:07.399Z,96740.89
2019-01-13T16:14:37.460Z,96739.30
2019-01-13T16:17:08.171Z,96731.61
2019-01-13T16:19:39.310Z,96734.20
2019-01-13T16:24:50.548Z,96728.84
2019-01-13T16:27:20.027Z,96727.77
2019-01-13T16:29:49.485Z,96730.20
2019-01-13T16:32:19.344Z,96734.92
2019-01-13T16:34:48.797Z,96736.25
2019-01-13T16:37:18.223Z,96731.73
2019-01-13T16:39:47.712Z,96735.44
2019-01-13T16:42:17.170Z,96733.92
2019-01-13T16:44:46.563Z,96735.84
2019-01-13T16:47:18.597Z,96735.56
2019-01-13T16:49:48.039Z,96734.53
2019-01-13T16:52:17.589Z,96737.13
2019-01-13T16:54:47.069Z,96742.36
2019-01-13T16:57:16.590Z,96736.28
2019-01-13T16:59:46.001Z,96734.13
2019-01-13T17:02:15.460Z,96736.25
2019-01-13T17:04:44.904Z,96734.88
2019-01-13T17:07:14.335Z,96734.36
2019-01-13T17:09:43.873Z,96739.63
2019-01-13T17:12:13.297Z,96734.88
2019-01-13T17:14:42.768Z,96738.32
2019-01-13T17:19:47.139Z,96738.08
2019-01-13T17:22:28.363Z,96739.64
2019-01-13T17:24:58.237Z,96750.23
2019-01-13T17:27:45.793Z,96743.08
2019-01-13T17:30:18.324Z,96746.77
2019-01-13T17:32:47.859Z,96740.68
2019-01-13T17:35:17.384Z,96744.63
2019-01-13T17:37:47.027Z,96740.11
2019-01-13T17:40:18.353Z,96737.19
2019-01-13T17:42:47.871Z,96754.11
2019-01-13T17:45:18.541Z,96749.06
2019-01-13T17:47:48.301Z,96749.34
2019-01-13T17:50:19.510Z,96755.10
2019-01-13T17:55:37.757Z,96757.42
2019-01-13T17:58:07.642Z,96762.13
2019-01-13T18:01:00.786Z,96764.67
2019-01-13T18:06:32.184Z,96766.98
2019-01-13T18:09:21.348Z,96762.17
2019-01-13T18:11:51.221Z,96767.68
2019-01-13T18:14:32.732Z,96778.47
2019-01-13T18:17:06.389Z,96778.70
2019-01-13T18:22:19.062Z,96783.40
2019-01-13T18:24:48.474Z,96787.58
2019-01-13T18:27:17.921Z,96788.56
2019-01-13T18:29:47.448Z,96797.17
2019-01-13T18:32:17.711Z,96800.67
2019-01-13T18:34:50.369Z,96800.78
2019-01-13T18:37:19.277Z,96804.55
2019-01-13T18:43:01.493Z,96824.67
2019-01-13T18:45:31.083Z,96824.67
2019-01-13T18:48:00.684Z,96827.77
2019-01-13T18:50:33.251Z,96839.72
2019-01-13T18:53:05.990Z,96839.72
2019-01-13T18:55:54.817Z,96860.84
2019-01-13T18:58:24.529Z,96860.84
2019-01-13T19:01:12.945Z,96868.13
2019-01-13T19:03:42.410Z,96861.16
2019-01-13T19:06:11.932Z,96863.28
2019-01-13T19:08:41.509Z,96863.05
2019-01-13T19:11:23.001Z,96871.47
2019-01-13T19:14:30.862Z,96862.53
2019-01-13T19:17:20.390Z,96891.45
2019-01-13T19:20:10.871Z,96891.45
2019-01-13T19:23:04.064Z,96897.98
2019-01-13T19:25:35.415Z,96903.84
2019-01-13T19:28:05.354Z,96915.50
2019-01-13T19:30:35.347Z,96927.36
2019-01-13T19:33:24.374Z,96927.36
2019-01-13T19:39:08.545Z,96941.73
2019-01-13T19:41:38.093Z,96941.73
2019-01-13T19:44:07.591Z,96948.12
2019-01-13T19:46:37.216Z,96948.12
2019-01-13T19:49:06.721Z,96962.03
2019-01-13T19:51:55.638Z,96966.69
2019-01-13T19:54:26.148Z,96971.89
2019-01-13T19:57:14.797Z,96971.89
2019-01-13T19:59:56.056Z,96975.39
2019-01-13T20:02:26.214Z,96975.39
2019-01-13T20:05:47.375Z,96984.32
2019-01-13T20:08:04.427Z,96988.84
2019-01-13T20:10:34.206Z,96992.38
2019-01-13T20:13:22.771Z,96998.22
2019-01-13T20:15:52.483Z,97006.56
2019-01-13T20:18:21.962Z,97009.41
2019-01-13T20:21:10.678Z,97016.92
2019-01-13T20:23:52.119Z,97013.41
2019-01-13T20:26:22.332Z,97013.41
2019-01-13T20:32:10.944Z,97030.97
2019-01-13T20:37:37.227Z,97029.94
2019-01-13T20:40:08.308Z,97018.94
2019-01-13T20:42:57.113Z,97028.23
2019-01-13T20:45:29.659Z,97028.23
2019-01-13T20:48:18.147Z,97035.65
2019-01-13T20:51:06.779Z,97040.62
2019-01-13T20:53:39.386Z,97040.62
2019-01-13T20:56:42.211Z,97041.46
2019-01-13T20:58:59.381Z,97041.46
2019-01-13T21:01:31.329Z,97050.74
2019-01-13T21:04:00.777Z,97046.73
2019-01-13T21:06:30.491Z,97058.72
2019-01-13T21:09:00.171Z,97068.39
2019-01-13T21:11:48.627Z,97061.02
2019-01-13T21:14:37.271Z,97058.75
2019-01-13T21:17:18.064Z,97065.33
2019-01-13T21:19:48.387Z,97065.33
2019-01-13T21:22:17.891Z,97086.23
2019-01-13T21:24:47.374Z,97093.19
2019-01-13T21:27:17.019Z,97093.19
2019-01-13T21:29:46.941Z,97105.85
2019-01-13T21:32:16.704Z,97105.85
2019-01-13T21:34:48.361Z,97106.72
2019-01-13T21:37:17.830Z,97116.87
2019-01-13T21:39:47.547Z,97122.14
2019-01-13T21:42:16.994Z,97122.14
2019-01-13T21:44:49.774Z,97114.04
2019-01-13T21:47:40.083Z,97131.48
2019-01-13T21:50:21.465Z,97131.48
2019-01-13T21:52:51.043Z,97134.96
2019-01-13T21:55:20.631Z,97152.12
2019-01-13T21:57:52.827Z,97152.12
2019-01-13T22:00:41.361Z,97158.44
2019-01-13T22:06:24.481Z,97156.69
2019-01-13T22:09:12.996Z,97160.16
2019-01-13T22:11:42.527Z,97159.72
2019-01-13T22:14:51.877Z,97169.06
2019-01-13T22:17:33.529Z,97183.95
2019-01-13T22:23:24.377Z,97180.76
2019-01-13T22:25:54.162Z,97181.52
2019-01-13T22:28:24.061Z,97193.89
2019-01-13T22:31:08.311Z,97185.03
2019-01-13T22:33:28.793Z,97194.23
2019-01-13T22:36:17.806Z,97189.84
2019-01-13T22:38:47.281Z,97205.89
2019-01-13T22:44:08.053Z,97207.76
2019-01-13T22:46:41.503Z,97192.87
2019-01-13T22:49:31.392Z,97206.99
2019-01-13T22:57:47.668Z,97218.23
2019-01-13T23:01:13.974Z,97218.02
2019-01-13T23:03:43.409Z,97222.09
2019-01-13T23:06:22.844Z,97224.51
2019-01-13T23:08:52.808Z,97220.17
2019-01-13T23:11:32.996Z,97224.23
2019-01-13T23:14:02.447Z,97219.89
2019-01-13T23:16:32.080Z,97230.47
2019-01-13T23:19:01.659Z,97234.91
2019-01-13T23:21:50.295Z,97241.66
2019-01-13T23:24:19.857Z,97238.16
2019-01-13T23:26:59.204Z,97240.48
2019-01-13T23:29:29.705Z,97250.34
2019-01-13T23:32:06.336Z,97239.56
2019-01-13T23:34:56.076Z,97245.00
2019-01-13T23:37:36.927Z,97253.87
2019-01-13T23:40:06.662Z,97253.06
2019-01-13T23:42:36.876Z,97264.85
2019-01-13T23:45:06.757Z,97264.16
2019-01-13T23:47:56.841Z,97261.73
2019-01-13T23:50:26.634Z,97261.53
2019-01-13T23:52:58.389Z,97270.70
2019-01-13T23:55:46.387Z,97274.13
2019-01-13T23:58:16.098Z,97280.87
